Datum - Zeit
Döttingen
TemperaturTaupunktFeuchteSolar Wind aus
Richtung
Windböenaus
Richtung
Luftdruck
(QFF)
RegenRegen
Stärke
02.12.2020 - 00.00Uhr1.7 °C-0.2 °C87 %0.0 W/m²0.0 km/hWest-SW0.0 km/hNorden1017.9 hPa0.0 mm0.0 mm/h
02.12.2020 - 00.05Uhr1.7 °C-0.2 °C87 %0.0 W/m²0.0 km/hWest-SW0.0 km/hNorden1017.9 hPa0.0 mm0.0 mm/h
02.12.2020 - 00.10Uhr1.8 °C-0.1 °C87 %0.0 W/m²0.0 km/hWest-SW0.0 km/hNorden1017.9 hPa0.0 mm0.0 mm/h
02.12.2020 - 00.15Uhr1.8 °C-0.1 °C87 %0.0 W/m²0.5 km/hWest-SW1.8 km/hWest-SW1017.9 hPa0.0 mm0.0 mm/h
02.12.2020 - 00.20Uhr1.8 °C-0.1 °C87 %0.0 W/m²0.9 km/hWest-SW4.0 km/hWest-SW1017.9 hPa0.0 mm0.0 mm/h
02.12.2020 - 00.25Uhr1.8 °C-0.1 °C87 %0.0 W/m²0.3 km/hWest-SW1.8 km/hWest-SW1017.8 hPa0.0 mm0.0 mm/h
02.12.2020 - 00.30Uhr1.7 °C-0.2 °C87 %0.0 W/m²0.0 km/hWest-SW0.0 km/hNorden1017.8 hPa0.0 mm0.0 mm/h
02.12.2020 - 00.35Uhr1.7 °C-0.2 °C87 %0.0 W/m²0.0 km/hWest-SW0.0 km/hNorden1017.8 hPa0.0 mm0.0 mm/h
02.12.2020 - 00.40Uhr1.6 °C-0.3 °C87 %0.0 W/m²0.0 km/hWest-SW0.0 km/hNorden1017.7 hPa0.0 mm0.0 mm/h
02.12.2020 - 00.45Uhr1.5 °C-0.4 °C87 %0.0 W/m²0.2 km/hWest-SW1.8 km/hWest-SW1017.7 hPa0.0 mm0.0 mm/h
02.12.2020 - 00.50Uhr1.6 °C-0.3 °C87 %0.0 W/m²0.0 km/hWest-SW0.0 km/hNorden1017.6 hPa0.0 mm0.0 mm/h
02.12.2020 - 00.55Uhr1.6 °C-0.3 °C87 %0.0 W/m²0.0 km/hWest-SW0.0 km/hNorden1017.7 hPa0.0 mm0.0 mm/h
02.12.2020 - 01.00Uhr1.6 °C-0.3 °C87 %0.0 W/m²0.0 km/hWest-SW0.0 km/hNorden1017.6 hPa0.0 mm0.0 mm/h
02.12.2020 - 01.05Uhr1.6 °C-0.3 °C87 %0.0 W/m²0.0 km/hWest-SW0.0 km/hNorden1017.5 hPa0.0 mm0.0 mm/h
02.12.2020 - 01.10Uhr1.6 °C-0.3 °C87 %0.0 W/m²0.0 km/hWest-SW0.0 km/hNorden1017.5 hPa0.0 mm0.0 mm/h
02.12.2020 - 01.15Uhr1.6 °C-0.3 °C87 %0.0 W/m²0.0 km/hWest-SW0.0 km/hNorden1017.4 hPa0.0 mm0.0 mm/h
02.12.2020 - 01.20Uhr1.6 °C-0.3 °C87 %0.0 W/m²0.0 km/hWest-SW0.0 km/hNorden1017.4 hPa0.0 mm0.0 mm/h
02.12.2020 - 01.25Uhr1.6 °C-0.3 °C87 %0.0 W/m²0.0 km/hWest-SW0.0 km/hNorden1017.4 hPa0.0 mm0.0 mm/h
02.12.2020 - 01.30Uhr1.6 °C-0.3 °C87 %0.0 W/m²0.0 km/hWest-SW0.0 km/hNorden1017.4 hPa0.0 mm0.0 mm/h
02.12.2020 - 01.35Uhr1.6 °C-0.3 °C87 %0.0 W/m²0.0 km/hWest-SW0.0 km/hNorden1017.4 hPa0.0 mm0.0 mm/h
02.12.2020 - 01.40Uhr1.5 °C-0.4 °C87 %0.0 W/m²0.0 km/hWest-SW0.0 km/hNorden1017.4 hPa0.0 mm0.0 mm/h
02.12.2020 - 01.45Uhr1.5 °C-0.4 °C87 %0.0 W/m²0.0 km/hWest-SW0.0 km/hNorden1017.4 hPa0.0 mm0.0 mm/h
02.12.2020 - 01.50Uhr1.6 °C-0.3 °C87 %0.0 W/m²0.0 km/hWest-SW0.0 km/hNorden1017.3 hPa0.0 mm0.0 mm/h
02.12.2020 - 01.55Uhr1.5 °C-0.4 °C87 %0.0 W/m²0.0 km/hWest-SW0.0 km/hNorden1017.3 hPa0.0 mm0.0 mm/h
02.12.2020 - 02.00Uhr1.6 °C-0.3 °C87 %0.0 W/m²0.0 km/hWest-SW0.0 km/hNorden1017.2 hPa0.0 mm0.0 mm/h
02.12.2020 - 02.05Uhr1.6 °C-0.3 °C87 %0.0 W/m²0.0 km/hWest-SW0.0 km/hNorden1017.2 hPa0.0 mm0.0 mm/h
02.12.2020 - 02.10Uhr1.6 °C-0.3 °C87 %0.0 W/m²0.0 km/hWest-SW0.0 km/hNorden1017.1 hPa0.0 mm0.0 mm/h
02.12.2020 - 02.15Uhr1.5 °C-0.4 °C87 %0.0 W/m²0.0 km/hWest-SW0.0 km/hNorden1017.1 hPa0.0 mm0.0 mm/h
02.12.2020 - 02.20Uhr1.4 °C-0.5 °C87 %0.0 W/m²0.0 km/hWest-SW0.0 km/hNorden1017.1 hPa0.0 mm0.0 mm/h
02.12.2020 - 02.25Uhr1.4 °C-0.5 °C87 %0.0 W/m²0.0 km/hWest-SW0.0 km/hNorden1017.1 hPa0.0 mm0.0 mm/h
02.12.2020 - 02.30Uhr1.4 °C-0.5 °C87 %0.0 W/m²0.0 km/hWest-SW0.0 km/hNorden1017.1 hPa0.0 mm0.0 mm/h
02.12.2020 - 02.35Uhr1.4 °C-0.5 °C87 %0.0 W/m²0.0 km/hWest-SW0.0 km/hNorden1017.1 hPa0.0 mm0.0 mm/h
02.12.2020 - 02.40Uhr1.4 °C-0.5 °C87 %0.0 W/m²0.0 km/hWest-SW0.0 km/hNorden1017.0 hPa0.0 mm0.0 mm/h
02.12.2020 - 02.45Uhr1.4 °C-0.5 °C87 %0.0 W/m²0.0 km/hWest-SW0.0 km/hNorden1017.0 hPa0.0 mm0.0 mm/h
02.12.2020 - 02.50Uhr1.4 °C-0.5 °C87 %0.0 W/m²0.0 km/hWest-SW0.0 km/hNorden1017.0 hPa0.0 mm0.0 mm/h
02.12.2020 - 02.55Uhr1.4 °C-0.5 °C87 %0.0 W/m²0.0 km/hWest-SW0.0 km/hNorden1016.9 hPa0.0 mm0.0 mm/h
02.12.2020 - 03.00Uhr1.4 °C-0.5 °C87 %0.0 W/m²0.0 km/hWest-SW0.0 km/hNorden1017.0 hPa0.0 mm0.0 mm/h
02.12.2020 - 03.05Uhr1.3 °C-0.6 °C87 %0.0 W/m²0.0 km/hWest-SW0.0 km/hNorden1016.9 hPa0.0 mm0.0 mm/h
02.12.2020 - 03.10Uhr1.3 °C-0.6 °C87 %0.0 W/m²0.0 km/hWest-SW0.0 km/hNorden1016.9 hPa0.0 mm0.0 mm/h
02.12.2020 - 03.15Uhr1.3 °C-0.6 °C87 %0.0 W/m²0.0 km/hWest-SW0.0 km/hNorden1016.8 hPa0.0 mm0.0 mm/h
02.12.2020 - 03.20Uhr1.3 °C-0.6 °C87 %0.0 W/m²0.2 km/hWest-SW1.8 km/hWest-SW1016.8 hPa0.0 mm0.0 mm/h
02.12.2020 - 03.25Uhr1.5 °C-0.4 °C87 %0.0 W/m²0.0 km/hWest-SW0.0 km/hNorden1016.7 hPa0.0 mm0.0 mm/h
02.12.2020 - 03.30Uhr1.6 °C-0.3 °C87 %0.0 W/m²2.3 km/hWest-SW5.8 km/hWest-SW1016.7 hPa0.0 mm0.0 mm/h
02.12.2020 - 03.35Uhr1.6 °C-0.3 °C87 %0.0 W/m²2.2 km/hWest-SW5.8 km/hWest-SW1016.6 hPa0.0 mm0.0 mm/h
02.12.2020 - 03.40Uhr1.5 °C-0.4 °C87 %0.0 W/m²2.7 km/hWest-SW5.8 km/hWest-SW1016.5 hPa0.0 mm0.0 mm/h
02.12.2020 - 03.45Uhr1.5 °C-0.4 °C87 %0.0 W/m²0.0 km/hWest-SW0.0 km/hNorden1016.5 hPa0.0 mm0.0 mm/h
02.12.2020 - 03.50Uhr1.4 °C-0.5 °C87 %0.0 W/m²2.2 km/hWest-SW5.8 km/hWest-SW1016.4 hPa0.0 mm0.0 mm/h
02.12.2020 - 03.55Uhr1.4 °C-0.5 °C87 %0.0 W/m²0.3 km/hWest-SW1.8 km/hWest-SW1016.4 hPa0.0 mm0.0 mm/h
02.12.2020 - 04.00Uhr1.4 °C-0.5 °C87 %0.0 W/m²0.3 km/hWest-SW1.8 km/hWest-SW1016.4 hPa0.0 mm0.0 mm/h
02.12.2020 - 04.05Uhr1.3 °C-0.6 °C87 %0.0 W/m²0.0 km/hWest-SW0.0 km/hNorden1016.4 hPa0.0 mm0.0 mm/h
02.12.2020 - 04.10Uhr1.4 °C-0.5 °C87 %0.0 W/m²0.0 km/hWest-SW0.0 km/hNorden1016.4 hPa0.0 mm0.0 mm/h
02.12.2020 - 04.15Uhr1.4 °C-0.5 °C87 %0.0 W/m²1.2 km/hWest-SW4.0 km/hWest-SW1016.3 hPa0.0 mm0.0 mm/h
02.12.2020 - 04.20Uhr1.4 °C-0.5 °C87 %0.0 W/m²0.0 km/hWest-SW0.0 km/hNorden1016.3 hPa0.0 mm0.0 mm/h
02.12.2020 - 04.25Uhr1.3 °C-0.6 °C87 %0.0 W/m²0.0 km/hWest-SW0.0 km/hNorden1016.3 hPa0.0 mm0.0 mm/h
02.12.2020 - 04.30Uhr1.4 °C-0.5 °C87 %0.0 W/m²0.0 km/hWest-SW0.0 km/hNorden1016.2 hPa0.0 mm0.0 mm/h
02.12.2020 - 04.35Uhr1.4 °C-0.5 °C87 %0.0 W/m²0.0 km/hWest-SW0.0 km/hNorden1016.2 hPa0.0 mm0.0 mm/h
02.12.2020 - 04.40Uhr1.4 °C-0.5 °C87 %0.0 W/m²0.0 km/hWest-SW0.0 km/hNorden1016.2 hPa0.0 mm0.0 mm/h
02.12.2020 - 04.45Uhr1.4 °C-0.5 °C87 %0.0 W/m²0.0 km/hWest-SW0.0 km/hNorden1016.2 hPa0.0 mm0.0 mm/h
02.12.2020 - 04.50Uhr1.4 °C-0.5 °C87 %0.0 W/m²0.0 km/hWest-SW0.0 km/hNorden1016.3 hPa0.0 mm0.0 mm/h
02.12.2020 - 04.55Uhr1.4 °C-0.5 °C87 %0.0 W/m²0.0 km/hWest-SW0.0 km/hNorden1016.3 hPa0.0 mm0.0 mm/h
02.12.2020 - 05.00Uhr1.3 °C-0.6 °C87 %0.0 W/m²0.0 km/hWest-SW0.0 km/hNorden1016.2 hPa0.0 mm0.0 mm/h
02.12.2020 - 05.05Uhr1.3 °C-0.6 °C87 %0.0 W/m²0.0 km/hWest-SW0.0 km/hNorden1016.3 hPa0.0 mm0.0 mm/h
02.12.2020 - 05.10Uhr1.3 °C-0.6 °C87 %0.0 W/m²0.0 km/hWest-SW0.0 km/hNorden1016.2 hPa0.0 mm0.0 mm/h
02.12.2020 - 05.15Uhr1.4 °C-0.5 °C87 %0.0 W/m²0.0 km/hWest-SW0.0 km/hNorden1016.3 hPa0.0 mm0.0 mm/h
02.12.2020 - 05.20Uhr1.5 °C-0.4 °C87 %0.0 W/m²0.0 km/hWest-SW0.0 km/hNorden1016.3 hPa0.0 mm0.0 mm/h
02.12.2020 - 05.25Uhr1.6 °C-0.3 °C87 %0.0 W/m²0.0 km/hWest-SW0.0 km/hNorden1016.3 hPa0.0 mm0.0 mm/h
02.12.2020 - 05.30Uhr1.6 °C-0.3 °C87 %0.0 W/m²0.0 km/hWest-SW0.0 km/hNorden1016.3 hPa0.0 mm0.0 mm/h
02.12.2020 - 05.35Uhr1.6 °C-0.3 °C87 %0.0 W/m²0.0 km/hWest-SW0.0 km/hNorden1016.3 hPa0.0 mm0.0 mm/h
02.12.2020 - 05.40Uhr1.6 °C-0.3 °C87 %0.0 W/m²0.0 km/hWest-SW0.0 km/hNorden1016.3 hPa0.0 mm0.0 mm/h
02.12.2020 - 05.45Uhr1.6 °C-0.3 °C87 %0.0 W/m²2.1 km/hWest-SW4.0 km/hWest-SW1016.2 hPa0.0 mm0.0 mm/h
02.12.2020 - 05.50Uhr1.4 °C-0.5 °C87 %0.0 W/m²0.3 km/hWest-SW1.8 km/hWest-SW1016.2 hPa0.0 mm0.0 mm/h
02.12.2020 - 05.55Uhr1.4 °C-0.5 °C87 %0.0 W/m²0.0 km/hWest-SW0.0 km/hNorden1016.2 hPa0.0 mm0.0 mm/h
02.12.2020 - 06.00Uhr1.4 °C-0.5 °C87 %0.0 W/m²2.6 km/hWest-SW5.8 km/hWest-SW1016.2 hPa0.0 mm0.0 mm/h
02.12.2020 - 06.05Uhr1.6 °C-0.3 °C87 %0.0 W/m²3.3 km/hWest-NW8.3 km/hWest-SW1016.1 hPa0.0 mm0.0 mm/h
02.12.2020 - 06.10Uhr1.7 °C-0.2 °C87 %0.0 W/m²2.2 km/hWest-NW8.3 km/hNorden1016.1 hPa0.0 mm0.0 mm/h
02.12.2020 - 06.15Uhr1.8 °C-0.1 °C87 %0.0 W/m²2.8 km/hNorden8.3 km/hNorden1016.1 hPa0.0 mm0.0 mm/h
02.12.2020 - 06.20Uhr1.9 °C-0.0 °C87 %0.0 W/m²2.3 km/hNordosten5.8 km/hNordosten1016.1 hPa0.0 mm0.0 mm/h
02.12.2020 - 06.25Uhr1.9 °C0.0 °C87 %0.0 W/m²1.4 km/hNordosten4.0 km/hNordosten1016.0 hPa0.0 mm0.0 mm/h
02.12.2020 - 06.30Uhr2.0 °C0.1 °C87 %0.0 W/m²1.8 km/hOst-NO5.8 km/hNordosten1016.1 hPa0.0 mm0.0 mm/h
02.12.2020 - 06.35Uhr2.1 °C0.2 °C87 %0.0 W/m²4.9 km/hOst-NO12.2 km/hOst-SO1016.1 hPa0.0 mm0.0 mm/h
02.12.2020 - 06.40Uhr2.1 °C0.2 °C87 %0.0 W/m²0.1 km/hOst-NO1.8 km/hOst-NO1016.1 hPa0.0 mm0.0 mm/h
02.12.2020 - 06.45Uhr2.1 °C0.2 °C87 %0.0 W/m²0.0 km/hOst-NO0.0 km/hNorden1016.1 hPa0.0 mm0.0 mm/h
02.12.2020 - 06.50Uhr2.1 °C0.2 °C87 %0.0 W/m²2.9 km/hNordosten8.3 km/hNordosten1016.0 hPa0.0 mm0.0 mm/h
02.12.2020 - 06.55Uhr2.1 °C0.2 °C87 %0.0 W/m²0.0 km/hNordosten0.0 km/hNorden1016.0 hPa0.0 mm0.0 mm/h
02.12.2020 - 07.00Uhr2.1 °C0.3 °C88 %0.0 W/m²1.6 km/hNordosten5.8 km/hNordosten1016.1 hPa0.0 mm0.0 mm/h
02.12.2020 - 07.05Uhr2.1 °C0.2 °C87 %0.0 W/m²0.0 km/hNordosten0.0 km/hNorden1016.1 hPa0.0 mm0.0 mm/h
02.12.2020 - 07.10Uhr2.2 °C0.4 °C88 %0.0 W/m²3.7 km/hNordosten12.2 km/hNordosten1016.1 hPa0.0 mm0.0 mm/h
02.12.2020 - 07.15Uhr2.2 °C0.4 °C88 %0.0 W/m²0.0 km/hNordosten0.0 km/hNorden1016.1 hPa0.0 mm0.0 mm/h
02.12.2020 - 07.20Uhr2.2 °C0.4 °C88 %0.0 W/m²3.0 km/hNordosten8.3 km/hOst-NO1016.1 hPa0.0 mm0.0 mm/h
02.12.2020 - 07.25Uhr2.3 °C0.5 °C88 %0.0 W/m²0.7 km/hOst-NO1.8 km/hOst-NO1016.1 hPa0.0 mm0.0 mm/h
02.12.2020 - 07.30Uhr2.3 °C0.5 °C88 %0.0 W/m²1.3 km/hOst-NO4.0 km/hOst-NO1016.1 hPa0.0 mm0.0 mm/h
02.12.2020 - 07.35Uhr2.2 °C0.4 °C88 %0.0 W/m²1.1 km/hOst-NO4.0 km/hOst-NO1016.1 hPa0.0 mm0.0 mm/h
02.12.2020 - 07.40Uhr2.1 °C0.3 °C88 %0.0 W/m²0.3 km/hOst-NO1.8 km/hOst-NO1016.1 hPa0.0 mm0.0 mm/h
02.12.2020 - 07.45Uhr2.1 °C0.3 °C88 %0.0 W/m²0.8 km/hOst-NO1.8 km/hOst-NO1016.1 hPa0.0 mm0.0 mm/h
02.12.2020 - 07.50Uhr2.1 °C0.3 °C88 %0.0 W/m²4.9 km/hNordosten12.2 km/hNordosten1016.1 hPa0.0 mm0.0 mm/h
02.12.2020 - 07.55Uhr2.2 °C0.4 °C88 %0.0 W/m²2.8 km/hNordosten5.8 km/hNordosten1016.1 hPa0.0 mm0.0 mm/h
02.12.2020 - 08.00Uhr2.3 °C0.5 °C88 %0.0 W/m²2.1 km/hNordosten8.3 km/hNordosten1016.1 hPa0.0 mm0.0 mm/h
02.12.2020 - 08.05Uhr2.3 °C0.5 °C88 %0.0 W/m²0.0 km/hNordosten0.0 km/hNorden1016.1 hPa0.0 mm0.0 mm/h
02.12.2020 - 08.10Uhr2.3 °C0.5 °C88 %0.0 W/m²1.9 km/hNordosten5.8 km/hNordosten1016.1 hPa0.0 mm0.0 mm/h
02.12.2020 - 08.15Uhr2.3 °C0.5 °C88 %0.0 W/m²1.2 km/hNordosten4.0 km/hNordosten1016.2 hPa0.0 mm0.0 mm/h
02.12.2020 - 08.20Uhr2.3 °C0.5 °C88 %0.0 W/m²0.5 km/hNordosten4.0 km/hNordosten1016.2 hPa0.0 mm0.0 mm/h
02.12.2020 - 08.25Uhr2.3 °C0.5 °C88 %0.0 W/m²1.8 km/hNordosten8.3 km/hNordosten1016.2 hPa0.0 mm0.0 mm/h
02.12.2020 - 08.30Uhr2.3 °C0.5 °C88 %0.0 W/m²1.2 km/hNordosten4.0 km/hNordosten1016.3 hPa0.0 mm0.0 mm/h
02.12.2020 - 08.35Uhr2.3 °C0.5 °C88 %0.0 W/m²0.9 km/hNordosten4.0 km/hNordosten1016.3 hPa0.0 mm0.0 mm/h
02.12.2020 - 08.40Uhr2.3 °C0.5 °C88 %9.0 W/m²0.0 km/hNordosten0.0 km/hNorden1016.4 hPa0.0 mm0.0 mm/h
02.12.2020 - 08.45Uhr2.3 °C0.5 °C88 %11.0 W/m²0.4 km/hNordosten1.8 km/hNordosten1016.4 hPa0.0 mm0.0 mm/h
02.12.2020 - 08.50Uhr2.3 °C0.5 °C88 %12.0 W/m²1.9 km/hNordosten5.8 km/hNordosten1016.4 hPa0.0 mm0.0 mm/h
02.12.2020 - 08.55Uhr2.3 °C0.5 °C88 %14.0 W/m²1.3 km/hNordosten4.0 km/hNordosten1016.4 hPa0.0 mm0.0 mm/h
02.12.2020 - 09.00Uhr2.3 °C0.5 °C88 %19.0 W/m²4.8 km/hNordosten8.3 km/hNordosten1016.5 hPa0.0 mm0.0 mm/h
02.12.2020 - 09.05Uhr2.3 °C0.5 °C88 %21.0 W/m²2.2 km/hNordosten12.2 km/hNordosten1016.4 hPa0.0 mm0.0 mm/h
02.12.2020 - 09.10Uhr2.3 °C0.5 °C88 %25.0 W/m²0.4 km/hNordosten5.8 km/hNordosten1016.4 hPa0.0 mm0.0 mm/h
02.12.2020 - 09.15Uhr2.3 °C0.5 °C88 %26.0 W/m²2.7 km/hNordosten5.8 km/hNordosten1016.4 hPa0.0 mm0.0 mm/h
02.12.2020 - 09.20Uhr2.4 °C0.6 °C88 %28.0 W/m²6.4 km/hNordosten18.0 km/hOst-SO1016.4 hPa0.0 mm0.0 mm/h
02.12.2020 - 09.25Uhr2.4 °C0.6 °C88 %28.0 W/m²5.1 km/hNorden14.0 km/hNorden1016.4 hPa0.0 mm0.0 mm/h
02.12.2020 - 09.30Uhr2.4 °C0.6 °C88 %28.0 W/m²6.7 km/hNorden20.2 km/hNordosten1016.4 hPa0.0 mm0.0 mm/h
02.12.2020 - 09.35Uhr2.3 °C0.5 °C88 %30.0 W/m²6.3 km/hNord-NO20.2 km/hNord-NO1016.4 hPa0.0 mm0.0 mm/h
02.12.2020 - 09.40Uhr2.3 °C0.5 °C88 %28.0 W/m²7.0 km/hNord-NO22.0 km/hNordosten1016.4 hPa0.0 mm0.0 mm/h
02.12.2020 - 09.45Uhr2.3 °C0.5 °C88 %28.0 W/m²6.7 km/hNord-NO10.1 km/hNord-NW1016.4 hPa0.0 mm0.0 mm/h
02.12.2020 - 09.50Uhr2.3 °C0.5 °C88 %30.0 W/m²8.1 km/hNorden18.0 km/hNord-NO1016.3 hPa0.0 mm0.0 mm/h
02.12.2020 - 09.55Uhr2.3 °C0.5 °C88 %32.0 W/m²6.8 km/hNord-NO16.2 km/hNord-NO1016.3 hPa0.0 mm0.0 mm/h
02.12.2020 - 10.00Uhr2.3 °C0.5 °C88 %39.0 W/m²3.9 km/hNord-NO12.2 km/hNorden1016.3 hPa0.0 mm0.0 mm/h
02.12.2020 - 10.05Uhr2.3 °C0.5 °C88 %49.0 W/m²4.8 km/hOst-NO12.2 km/hNord-NO1016.3 hPa0.0 mm0.0 mm/h
02.12.2020 - 10.10Uhr2.3 °C0.5 °C88 %56.0 W/m²5.7 km/hNord-NO12.2 km/hNord-NW1016.1 hPa0.0 mm0.0 mm/h
02.12.2020 - 10.15Uhr2.4 °C0.6 °C88 %60.0 W/m²6.8 km/hNorden12.2 km/hNorden1016.0 hPa0.0 mm0.0 mm/h
02.12.2020 - 10.20Uhr2.4 °C0.6 °C88 %63.0 W/m²7.5 km/hNorden12.2 km/hNorden1016.0 hPa0.0 mm0.0 mm/h
02.12.2020 - 10.25Uhr2.5 °C0.7 °C88 %69.0 W/m²4.2 km/hNorden12.2 km/hNorden1015.9 hPa0.0 mm0.0 mm/h
02.12.2020 - 10.30Uhr2.6 °C0.8 °C88 %72.0 W/m²2.6 km/hNorden8.3 km/hNorden1015.8 hPa0.0 mm0.0 mm/h
02.12.2020 - 10.35Uhr2.6 °C0.8 °C88 %77.0 W/m²0.2 km/hNorden1.8 km/hNorden1015.9 hPa0.0 mm0.0 mm/h
02.12.2020 - 10.40Uhr2.5 °C0.7 °C88 %93.0 W/m²0.4 km/hNorden1.8 km/hNorden1015.8 hPa0.0 mm0.0 mm/h
02.12.2020 - 10.45Uhr2.8 °C1.0 °C88 %97.0 W/m²3.5 km/hNorden8.3 km/hNorden1015.7 hPa0.0 mm0.0 mm/h
02.12.2020 - 10.50Uhr2.8 °C0.9 °C87 %97.0 W/m²2.2 km/hNorden5.8 km/hNorden1015.7 hPa0.0 mm0.0 mm/h
02.12.2020 - 10.55Uhr2.9 °C0.8 °C86 %97.0 W/m²2.3 km/hNorden5.8 km/hNordosten1015.7 hPa0.0 mm0.0 mm/h
02.12.2020 - 11.00Uhr3.0 °C0.9 °C86 %84.0 W/m²1.0 km/hNordosten4.0 km/hNordosten1015.7 hPa0.0 mm0.0 mm/h
02.12.2020 - 11.05Uhr3.1 °C1.1 °C87 %81.0 W/m²0.5 km/hNordosten1.8 km/hNordosten1015.6 hPa0.0 mm0.0 mm/h
02.12.2020 - 11.10Uhr3.1 °C1.0 °C86 %79.0 W/m²2.2 km/hNordosten5.8 km/hNordosten1015.6 hPa0.0 mm0.0 mm/h
02.12.2020 - 11.15Uhr3.0 °C0.8 °C86 %86.0 W/m²3.5 km/hNordosten8.3 km/hNordosten1015.5 hPa0.0 mm0.0 mm/h
02.12.2020 - 11.20Uhr3.0 °C0.7 °C85 %90.0 W/m²0.1 km/hNordosten1.8 km/hNordosten1015.5 hPa0.0 mm0.0 mm/h
02.12.2020 - 11.25Uhr3.0 °C0.8 °C86 %88.0 W/m²2.1 km/hNordosten5.8 km/hNordosten1015.5 hPa0.0 mm0.0 mm/h
02.12.2020 - 11.30Uhr3.1 °C0.8 °C85 %88.0 W/m²0.0 km/hNordosten0.0 km/hNorden1015.4 hPa0.0 mm0.0 mm/h
02.12.2020 - 11.35Uhr3.2 °C0.9 °C85 %72.0 W/m²2.4 km/hNordosten5.8 km/hNordosten1015.3 hPa0.0 mm0.0 mm/h
02.12.2020 - 11.40Uhr3.1 °C0.8 °C85 %74.0 W/m²2.9 km/hNordosten8.3 km/hNordosten1015.2 hPa0.0 mm0.0 mm/h
02.12.2020 - 11.45Uhr3.2 °C0.8 °C84 %74.0 W/m²2.0 km/hOsten5.8 km/hOsten1015.1 hPa0.0 mm0.0 mm/h
02.12.2020 - 11.50Uhr3.2 °C0.9 °C85 %72.0 W/m²4.1 km/hNordosten12.2 km/hNordosten1015.0 hPa0.0 mm0.0 mm/h
02.12.2020 - 11.55Uhr3.1 °C0.8 °C84 %69.0 W/m²4.3 km/hNordosten10.1 km/hOst-NO1014.9 hPa0.0 mm0.0 mm/h
02.12.2020 - 12.00Uhr3.2 °C0.8 °C85 %77.0 W/m²1.6 km/hNordosten5.8 km/hNordosten1014.8 hPa0.0 mm0.0 mm/h
02.12.2020 - 12.05Uhr3.1 °C0.8 °C85 %79.0 W/m²2.0 km/hNordosten5.8 km/hNordosten1014.7 hPa0.0 mm0.0 mm/h
02.12.2020 - 12.10Uhr3.1 °C0.7 °C84 %77.0 W/m²7.1 km/hOsten18.0 km/hOst-SO1014.6 hPa0.0 mm0.0 mm/h
02.12.2020 - 12.15Uhr3.1 °C0.7 °C84 %67.0 W/m²0.3 km/hOsten1.8 km/hOsten1014.6 hPa0.0 mm0.0 mm/h
02.12.2020 - 12.20Uhr3.1 °C0.8 °C85 %56.0 W/m²4.2 km/hNordosten8.3 km/hNordosten1014.6 hPa0.0 mm0.0 mm/h
02.12.2020 - 12.25Uhr3.0 °C0.6 °C84 %53.0 W/m²2.5 km/hOst-SO8.3 km/hOst-SO1014.6 hPa0.0 mm0.0 mm/h
02.12.2020 - 12.30Uhr3.1 °C0.9 °C85 %54.0 W/m²1.1 km/hOst-SO4.0 km/hOst-SO1014.6 hPa0.0 mm0.0 mm/h
02.12.2020 - 12.35Uhr3.1 °C0.8 °C85 %53.0 W/m²2.1 km/hOst-SO8.3 km/hOst-SO1014.5 hPa0.0 mm0.0 mm/h
02.12.2020 - 12.40Uhr3.1 °C0.7 °C84 %49.0 W/m²4.1 km/hOsten10.1 km/hOsten1014.5 hPa0.0 mm0.0 mm/h
02.12.2020 - 12.45Uhr3.0 °C0.6 °C84 %46.0 W/m²2.1 km/hOsten8.3 km/hOsten1014.4 hPa0.0 mm0.0 mm/h
02.12.2020 - 12.50Uhr3.0 °C0.6 °C85 %44.0 W/m²1.0 km/hOsten4.0 km/hOsten1014.2 hPa0.0 mm0.0 mm/h
02.12.2020 - 12.55Uhr2.9 °C0.6 °C85 %40.0 W/m²0.0 km/hOsten0.0 km/hNorden1014.2 hPa0.0 mm0.0 mm/h
02.12.2020 - 13.00Uhr2.9 °C0.6 °C85 %46.0 W/m²0.9 km/hOsten4.0 km/hOsten1014.2 hPa0.0 mm0.0 mm/h
02.12.2020 - 13.05Uhr2.8 °C0.5 °C85 %46.0 W/m²0.0 km/hOsten0.0 km/hNorden1014.0 hPa0.0 mm0.0 mm/h
02.12.2020 - 13.10Uhr2.8 °C0.5 °C85 %47.0 W/m²2.8 km/hOsten8.3 km/hOsten1014.0 hPa0.0 mm0.0 mm/h
02.12.2020 - 13.15Uhr2.9 °C0.6 °C84 %47.0 W/m²4.0 km/hNordosten12.2 km/hNordosten1013.9 hPa0.0 mm0.0 mm/h
02.12.2020 - 13.20Uhr2.9 °C0.6 °C85 %40.0 W/m²4.4 km/hNord-NO8.3 km/hNord-NO1013.9 hPa0.0 mm0.0 mm/h
02.12.2020 - 13.25Uhr2.9 °C0.5 °C85 %42.0 W/m²2.8 km/hNordosten12.2 km/hNordosten1013.8 hPa0.0 mm0.0 mm/h
02.12.2020 - 13.30Uhr2.9 °C0.5 °C84 %39.0 W/m²2.9 km/hNordosten10.1 km/hOst-NO1013.7 hPa0.0 mm0.0 mm/h
02.12.2020 - 13.35Uhr2.9 °C0.5 °C84 %40.0 W/m²1.2 km/hOst-NO4.0 km/hOst-NO1013.6 hPa0.0 mm0.0 mm/h
02.12.2020 - 13.40Uhr2.9 °C0.6 °C85 %42.0 W/m²0.3 km/hOst-NO1.8 km/hOst-NO1013.6 hPa0.0 mm0.0 mm/h
02.12.2020 - 13.45Uhr2.9 °C0.6 °C85 %46.0 W/m²0.0 km/hOst-NO0.0 km/hNorden1013.7 hPa0.0 mm0.0 mm/h
02.12.2020 - 13.50Uhr3.0 °C0.7 °C85 %46.0 W/m²0.5 km/hOst-NO1.8 km/hOst-NO1013.6 hPa0.0 mm0.0 mm/h
02.12.2020 - 13.55Uhr2.9 °C0.6 °C85 %46.0 W/m²1.2 km/hOst-NO4.0 km/hOst-NO1013.5 hPa0.0 mm0.0 mm/h
02.12.2020 - 14.00Uhr2.9 °C0.5 °C84 %42.0 W/m²0.0 km/hOst-NO0.0 km/hNorden1013.5 hPa0.0 mm0.0 mm/h
02.12.2020 - 14.05Uhr2.9 °C0.6 °C85 %39.0 W/m²3.9 km/hNordosten8.3 km/hNordosten1013.5 hPa0.0 mm0.0 mm/h
02.12.2020 - 14.10Uhr2.9 °C0.6 °C85 %37.0 W/m²2.0 km/hNordosten5.8 km/hNordosten1013.6 hPa0.0 mm0.0 mm/h
02.12.2020 - 14.15Uhr3.0 °C0.6 °C84 %30.0 W/m²1.8 km/hOst-NO5.8 km/hOst-NO1013.5 hPa0.0 mm0.0 mm/h
02.12.2020 - 14.20Uhr2.9 °C0.6 °C85 %35.0 W/m²0.0 km/hOst-NO0.0 km/hNorden1013.5 hPa0.0 mm0.0 mm/h
02.12.2020 - 14.25Uhr3.0 °C0.9 °C86 %33.0 W/m²0.2 km/hOst-NO1.8 km/hOst-NO1013.5 hPa0.0 mm0.0 mm/h
02.12.2020 - 14.30Uhr2.9 °C0.7 °C85 %33.0 W/m²0.0 km/hOst-NO0.0 km/hNorden1013.5 hPa0.0 mm0.0 mm/h
02.12.2020 - 14.35Uhr2.9 °C0.6 °C85 %30.0 W/m²0.5 km/hOst-NO1.8 km/hOst-NO1013.4 hPa0.0 mm0.0 mm/h
02.12.2020 - 14.40Uhr2.9 °C0.5 °C85 %25.0 W/m²0.0 km/hOst-NO0.0 km/hNorden1013.4 hPa0.0 mm0.0 mm/h
02.12.2020 - 14.45Uhr2.8 °C0.4 °C84 %21.0 W/m²0.3 km/hOst-NO1.8 km/hOst-NO1013.4 hPa0.0 mm0.0 mm/h
02.12.2020 - 14.50Uhr2.8 °C0.4 °C84 %21.0 W/m²0.0 km/hOst-NO0.0 km/hNorden1013.4 hPa0.0 mm0.0 mm/h
02.12.2020 - 14.55Uhr2.8 °C0.5 °C84 %21.0 W/m²0.0 km/hOst-NO0.0 km/hNorden1013.4 hPa0.0 mm0.0 mm/h
02.12.2020 - 15.00Uhr2.8 °C0.5 °C85 %21.0 W/m²0.0 km/hOst-NO0.0 km/hNorden1013.4 hPa0.0 mm0.0 mm/h
02.12.2020 - 15.05Uhr2.8 °C0.5 °C85 %19.0 W/m²0.0 km/hOst-NO0.0 km/hNorden1013.4 hPa0.0 mm0.0 mm/h
02.12.2020 - 15.10Uhr2.8 °C0.5 °C85 %19.0 W/m²0.0 km/hOst-NO0.0 km/hNorden1013.4 hPa0.0 mm0.0 mm/h
02.12.2020 - 15.15Uhr2.8 °C0.5 °C85 %21.0 W/m²1.4 km/hOst-NO4.0 km/hOst-NO1013.4 hPa0.0 mm0.0 mm/h
02.12.2020 - 15.20Uhr2.8 °C0.5 °C84 %23.0 W/m²0.3 km/hOst-NO1.8 km/hOst-NO1013.4 hPa0.0 mm0.0 mm/h
02.12.2020 - 15.25Uhr2.8 °C0.4 °C84 %21.0 W/m²1.8 km/hOst-NO5.8 km/hOst-NO1013.4 hPa0.0 mm0.0 mm/h
02.12.2020 - 15.30Uhr2.8 °C0.4 °C84 %19.0 W/m²1.0 km/hOst-NO4.0 km/hOst-NO1013.5 hPa0.0 mm0.0 mm/h
02.12.2020 - 15.35Uhr2.8 °C0.4 °C84 %18.0 W/m²2.2 km/hOst-NO5.8 km/hOst-NO1013.4 hPa0.0 mm0.0 mm/h
02.12.2020 - 15.40Uhr2.8 °C0.4 °C84 %18.0 W/m²0.0 km/hOst-NO0.0 km/hNorden1013.4 hPa0.0 mm0.0 mm/h
02.12.2020 - 15.45Uhr2.7 °C0.3 °C84 %16.0 W/m²0.5 km/hOst-NO1.8 km/hOst-NO1013.5 hPa0.0 mm0.0 mm/h
02.12.2020 - 15.50Uhr2.7 °C0.3 °C84 %14.0 W/m²0.0 km/hOst-NO0.0 km/hNorden1013.5 hPa0.0 mm0.0 mm/h
02.12.2020 - 15.55Uhr2.7 °C0.4 °C84 %12.0 W/m²0.8 km/hOst-NO4.0 km/hOst-NO1013.5 hPa0.0 mm0.0 mm/h
02.12.2020 - 16.00Uhr2.8 °C0.3 °C84 %12.0 W/m²1.5 km/hOst-NO5.8 km/hOst-NO1013.5 hPa0.0 mm0.0 mm/h
02.12.2020 - 16.05Uhr2.8 °C0.3 °C83 %11.0 W/m²1.1 km/hOst-NO4.0 km/hOst-NO1013.5 hPa0.0 mm0.0 mm/h
02.12.2020 - 16.10Uhr2.7 °C0.3 °C84 %9.0 W/m²2.2 km/hOst-NO5.8 km/hOst-NO1013.4 hPa0.0 mm0.0 mm/h
02.12.2020 - 16.15Uhr2.7 °C0.1 °C83 %7.0 W/m²1.9 km/hOst-NO5.8 km/hOst-NO1013.4 hPa0.0 mm0.0 mm/h
02.12.2020 - 16.20Uhr2.7 °C0.2 °C84 %5.0 W/m²1.5 km/hOst-NO5.8 km/hOst-NO1013.4 hPa0.0 mm0.0 mm/h
02.12.2020 - 16.25Uhr2.7 °C0.2 °C84 %5.0 W/m²0.5 km/hOst-NO1.8 km/hOst-NO1013.4 hPa0.0 mm0.0 mm/h
02.12.2020 - 16.30Uhr2.6 °C0.2 °C84 %0.0 W/m²0.0 km/hOst-NO0.0 km/hNorden1013.4 hPa0.0 mm0.0 mm/h
02.12.2020 - 16.35Uhr2.5 °C0.2 °C85 %0.0 W/m²0.2 km/hOst-NO1.8 km/hOst-NO1013.5 hPa0.0 mm0.0 mm/h
02.12.2020 - 16.40Uhr2.4 °C0.3 °C86 %0.0 W/m²0.0 km/hOst-NO0.0 km/hNorden1013.6 hPa0.0 mm0.0 mm/h
02.12.2020 - 16.45Uhr2.4 °C0.3 °C86 %0.0 W/m²0.0 km/hOst-NO0.0 km/hNorden1013.6 hPa0.0 mm0.0 mm/h
02.12.2020 - 16.50Uhr2.4 °C0.3 °C86 %0.0 W/m²0.0 km/hOst-NO0.0 km/hNorden1013.6 hPa0.0 mm0.0 mm/h
02.12.2020 - 16.55Uhr2.3 °C0.2 °C86 %0.0 W/m²0.0 km/hOst-NO0.0 km/hNorden1013.7 hPa0.0 mm0.0 mm/h
02.12.2020 - 17.00Uhr2.2 °C0.2 °C86 %0.0 W/m²0.0 km/hOst-NO0.0 km/hNorden1013.8 hPa0.0 mm0.0 mm/h
02.12.2020 - 17.05Uhr2.3 °C0.4 °C87 %0.0 W/m²0.8 km/hOst-NO4.0 km/hOst-NO1013.7 hPa0.0 mm0.0 mm/h
02.12.2020 - 17.10Uhr2.3 °C0.4 °C87 %0.0 W/m²2.7 km/hOst-NO5.8 km/hOst-NO1013.7 hPa0.0 mm0.0 mm/h
02.12.2020 - 17.15Uhr2.4 °C0.5 °C87 %0.0 W/m²2.9 km/hOst-NO5.8 km/hOst-NO1013.7 hPa0.0 mm0.0 mm/h
02.12.2020 - 17.20Uhr2.4 °C0.3 °C86 %0.0 W/m²1.7 km/hOst-NO4.0 km/hOst-NO1013.7 hPa0.0 mm0.0 mm/h
02.12.2020 - 17.25Uhr2.4 °C0.2 °C86 %0.0 W/m²0.9 km/hOst-NO4.0 km/hOst-NO1013.7 hPa0.0 mm0.0 mm/h
02.12.2020 - 17.30Uhr2.4 °C0.1 °C85 %0.0 W/m²0.0 km/hOst-NO0.0 km/hNorden1013.8 hPa0.0 mm0.0 mm/h
02.12.2020 - 17.35Uhr2.4 °C0.3 °C86 %0.0 W/m²0.0 km/hOst-NO0.0 km/hNorden1013.8 hPa0.0 mm0.0 mm/h
02.12.2020 - 17.40Uhr2.3 °C0.2 °C86 %0.0 W/m²0.0 km/hOst-NO0.0 km/hNorden1013.9 hPa0.0 mm0.0 mm/h
02.12.2020 - 17.45Uhr2.2 °C0.1 °C86 %0.0 W/m²0.0 km/hOst-NO0.0 km/hNorden1013.9 hPa0.0 mm0.0 mm/h
02.12.2020 - 17.50Uhr2.1 °C0.1 °C87 %0.0 W/m²0.0 km/hOst-NO0.0 km/hNorden1013.9 hPa0.0 mm0.0 mm/h
02.12.2020 - 17.55Uhr2.0 °C0.1 °C87 %0.0 W/m²0.0 km/hOst-NO0.0 km/hNorden1013.9 hPa0.0 mm0.0 mm/h
02.12.2020 - 18.00Uhr1.9 °C0.0 °C87 %0.0 W/m²1.3 km/hOst-NO4.0 km/hOst-NO1013.9 hPa0.0 mm0.0 mm/h
02.12.2020 - 18.05Uhr1.9 °C-0.0 °C87 %0.0 W/m²0.8 km/hOst-NO4.0 km/hOst-NO1013.9 hPa0.0 mm0.0 mm/h
02.12.2020 - 18.10Uhr1.9 °C0.0 °C87 %0.0 W/m²0.0 km/hOst-NO0.0 km/hNorden1014.0 hPa0.0 mm0.0 mm/h
02.12.2020 - 18.15Uhr2.0 °C0.1 °C87 %0.0 W/m²0.0 km/hOst-NO0.0 km/hNorden1014.0 hPa0.0 mm0.0 mm/h
02.12.2020 - 18.20Uhr2.1 °C0.2 °C87 %0.0 W/m²0.0 km/hOst-NO0.0 km/hNorden1014.0 hPa0.0 mm0.0 mm/h
02.12.2020 - 18.25Uhr2.0 °C0.1 °C87 %0.0 W/m²0.0 km/hOst-NO0.0 km/hNorden1014.0 hPa0.0 mm0.0 mm/h
02.12.2020 - 18.30Uhr2.0 °C0.1 °C87 %0.0 W/m²3.9 km/hOst-NO5.8 km/hOst-NO1014.0 hPa0.0 mm0.0 mm/h
02.12.2020 - 18.35Uhr1.9 °C0.1 °C87 %0.0 W/m²3.6 km/hOst-NO8.3 km/hOst-NO1014.0 hPa0.0 mm0.0 mm/h
02.12.2020 - 18.40Uhr1.9 °C0.1 °C88 %0.0 W/m²0.5 km/hOst-NO1.8 km/hOst-NO1014.0 hPa0.0 mm0.0 mm/h
02.12.2020 - 18.45Uhr1.8 °C0.0 °C88 %0.0 W/m²0.0 km/hOst-NO0.0 km/hNorden1013.9 hPa0.0 mm0.0 mm/h
02.12.2020 - 18.50Uhr1.7 °C-0.1 °C88 %0.0 W/m²0.0 km/hOst-NO0.0 km/hNorden1013.9 hPa0.0 mm0.0 mm/h
02.12.2020 - 18.55Uhr1.7 °C-0.1 °C88 %0.0 W/m²1.4 km/hOst-NO4.0 km/hOst-NO1013.9 hPa0.0 mm0.0 mm/h
02.12.2020 - 19.00Uhr1.7 °C-0.1 °C88 %0.0 W/m²0.3 km/hOst-NO1.8 km/hOst-NO1013.9 hPa0.0 mm0.0 mm/h
02.12.2020 - 19.05Uhr1.7 °C-0.1 °C88 %0.0 W/m²0.0 km/hOst-NO0.0 km/hNorden1014.0 hPa0.0 mm0.0 mm/h
02.12.2020 - 19.10Uhr1.7 °C-0.1 °C88 %0.0 W/m²0.0 km/hOst-NO0.0 km/hNorden1014.0 hPa0.0 mm0.0 mm/h
02.12.2020 - 19.15Uhr1.7 °C-0.1 °C88 %0.0 W/m²0.0 km/hOst-NO0.0 km/hNorden1014.0 hPa0.0 mm0.0 mm/h
02.12.2020 - 19.20Uhr1.7 °C-0.1 °C88 %0.0 W/m²1.1 km/hOst-NO4.0 km/hOst-NO1014.0 hPa0.0 mm0.0 mm/h
02.12.2020 - 19.25Uhr1.7 °C-0.1 °C88 %0.0 W/m²1.2 km/hOst-NO5.8 km/hOst-NO1014.0 hPa0.0 mm0.0 mm/h
02.12.2020 - 19.30Uhr1.7 °C-0.1 °C88 %0.0 W/m²1.7 km/hOst-NO4.0 km/hOst-NO1014.0 hPa0.0 mm0.0 mm/h
02.12.2020 - 19.35Uhr1.6 °C-0.2 °C88 %0.0 W/m²1.4 km/hOst-NO4.0 km/hOst-NO1014.0 hPa0.0 mm0.0 mm/h
02.12.2020 - 19.40Uhr1.6 °C-0.2 °C88 %0.0 W/m²1.3 km/hOst-NO4.0 km/hOst-NO1014.1 hPa0.0 mm0.0 mm/h
02.12.2020 - 19.45Uhr1.7 °C-0.1 °C88 %0.0 W/m²1.7 km/hOst-NO4.0 km/hOst-NO1014.2 hPa0.0 mm0.0 mm/h
02.12.2020 - 19.50Uhr1.6 °C-0.2 °C88 %0.0 W/m²1.9 km/hOst-NO4.0 km/hOst-NO1014.2 hPa0.0 mm0.0 mm/h
02.12.2020 - 19.55Uhr1.6 °C-0.2 °C88 %0.0 W/m²2.0 km/hOst-NO5.8 km/hOst-NO1014.2 hPa0.0 mm0.0 mm/h
02.12.2020 - 20.00Uhr1.5 °C-0.3 °C88 %0.0 W/m²3.4 km/hOst-NO5.8 km/hOst-NO1014.3 hPa0.0 mm0.0 mm/h
02.12.2020 - 20.05Uhr1.5 °C-0.3 °C88 %0.0 W/m²3.6 km/hOst-NO8.3 km/hOst-NO1014.3 hPa0.0 mm0.0 mm/h
02.12.2020 - 20.10Uhr1.5 °C-0.3 °C88 %0.0 W/m²3.5 km/hOst-NO8.3 km/hOst-NO1014.3 hPa0.0 mm0.0 mm/h
02.12.2020 - 20.15Uhr1.5 °C-0.4 °C87 %0.0 W/m²0.0 km/hOst-NO0.0 km/hNorden1014.3 hPa0.0 mm0.0 mm/h
02.12.2020 - 20.20Uhr1.5 °C-0.3 °C88 %0.0 W/m²2.8 km/hOst-NO5.8 km/hOst-NO1014.3 hPa0.0 mm0.0 mm/h
02.12.2020 - 20.25Uhr1.5 °C-0.3 °C88 %0.0 W/m²0.9 km/hOst-NO4.0 km/hOst-NO1014.3 hPa0.0 mm0.0 mm/h
02.12.2020 - 20.30Uhr1.4 °C-0.4 °C88 %0.0 W/m²0.5 km/hOst-NO1.8 km/hOst-NO1014.3 hPa0.0 mm0.0 mm/h
02.12.2020 - 20.35Uhr1.4 °C-0.4 °C88 %0.0 W/m²0.7 km/hOst-NO4.0 km/hOst-NO1014.3 hPa0.0 mm0.0 mm/h
02.12.2020 - 20.40Uhr1.5 °C-0.3 °C88 %0.0 W/m²1.6 km/hOst-NO5.8 km/hOst-NO1014.4 hPa0.0 mm0.0 mm/h
02.12.2020 - 20.45Uhr1.5 °C-0.3 °C88 %0.0 W/m²3.2 km/hOst-NO8.3 km/hOst-NO1014.4 hPa0.0 mm0.0 mm/h
02.12.2020 - 20.50Uhr1.4 °C-0.4 °C88 %0.0 W/m²4.1 km/hOst-NO8.3 km/hOst-NO1014.4 hPa0.0 mm0.0 mm/h
02.12.2020 - 20.55Uhr1.3 °C-0.5 °C88 %0.0 W/m²8.2 km/hOsten12.2 km/hOsten1014.4 hPa0.0 mm0.0 mm/h
02.12.2020 - 21.00Uhr1.3 °C-0.5 °C88 %0.0 W/m²8.0 km/hOst-SO12.2 km/hOst-SO1014.4 hPa0.0 mm0.0 mm/h
02.12.2020 - 21.05Uhr1.3 °C-0.6 °C87 %0.0 W/m²4.8 km/hOst-SO8.3 km/hOst-SO1014.4 hPa0.0 mm0.0 mm/h
02.12.2020 - 21.10Uhr1.3 °C-0.6 °C87 %0.0 W/m²8.2 km/hOst-SO8.3 km/hOst-SO1014.4 hPa0.0 mm0.0 mm/h
02.12.2020 - 21.15Uhr1.4 °C-0.4 °C88 %0.0 W/m²5.0 km/hOst-SO8.3 km/hOst-SO1014.5 hPa0.0 mm0.0 mm/h
02.12.2020 - 21.20Uhr1.4 °C-0.4 °C88 %0.0 W/m²4.9 km/hOst-SO8.3 km/hOst-SO1014.5 hPa0.0 mm0.0 mm/h
02.12.2020 - 21.25Uhr1.4 °C-0.4 °C88 %0.0 W/m²3.4 km/hOst-SO8.3 km/hOst-SO1014.5 hPa0.0 mm0.0 mm/h
02.12.2020 - 21.30Uhr1.4 °C-0.4 °C88 %0.0 W/m²3.0 km/hOst-SO8.3 km/hOst-SO1014.5 hPa0.0 mm0.0 mm/h
02.12.2020 - 21.35Uhr1.4 °C-0.4 °C88 %0.0 W/m²3.4 km/hOst-SO8.3 km/hOst-SO1014.5 hPa0.0 mm0.0 mm/h
02.12.2020 - 21.40Uhr1.4 °C-0.4 °C88 %0.0 W/m²4.8 km/hOst-SO8.3 km/hOst-SO1014.5 hPa0.0 mm0.0 mm/h
02.12.2020 - 21.45Uhr1.3 °C-0.5 °C88 %0.0 W/m²5.7 km/hOst-SO8.3 km/hOst-SO1014.5 hPa0.0 mm0.0 mm/h
02.12.2020 - 21.50Uhr1.3 °C-0.5 °C88 %0.0 W/m²3.9 km/hOst-SO8.3 km/hOst-SO1014.6 hPa0.0 mm0.0 mm/h
02.12.2020 - 21.55Uhr1.3 °C-0.5 °C88 %0.0 W/m²4.1 km/hOst-SO8.3 km/hOst-SO1014.5 hPa0.0 mm0.0 mm/h
02.12.2020 - 22.00Uhr1.3 °C-0.5 °C88 %0.0 W/m²3.7 km/hOst-SO8.3 km/hOst-SO1014.5 hPa0.0 mm0.0 mm/h
02.12.2020 - 22.05Uhr1.3 °C-0.5 °C88 %0.0 W/m²1.0 km/hOst-SO4.0 km/hOst-SO1014.4 hPa0.0 mm0.0 mm/h
02.12.2020 - 22.10Uhr1.2 °C-0.6 °C88 %0.0 W/m²1.2 km/hOst-SO4.0 km/hOst-SO1014.4 hPa0.0 mm0.0 mm/h
02.12.2020 - 22.15Uhr1.2 °C-0.6 °C88 %0.0 W/m²2.5 km/hOst-SO8.3 km/hOst-SO1014.4 hPa0.0 mm0.0 mm/h
02.12.2020 - 22.20Uhr1.2 °C-0.6 °C88 %0.0 W/m²2.8 km/hOst-SO8.3 km/hOst-SO1014.3 hPa0.0 mm0.0 mm/h
02.12.2020 - 22.25Uhr1.2 °C-0.6 °C88 %0.0 W/m²5.2 km/hOst-SO8.3 km/hOst-SO1014.3 hPa0.0 mm0.0 mm/h
02.12.2020 - 22.30Uhr1.2 °C-0.6 °C88 %0.0 W/m²4.4 km/hOst-SO8.3 km/hOst-SO1014.2 hPa0.0 mm0.0 mm/h
02.12.2020 - 22.35Uhr1.3 °C-0.5 °C88 %0.0 W/m²3.4 km/hOst-SO8.3 km/hOst-SO1014.3 hPa0.0 mm0.0 mm/h
02.12.2020 - 22.40Uhr1.3 °C-0.5 °C88 %0.0 W/m²0.0 km/hOst-SO0.0 km/hNorden1014.2 hPa0.0 mm0.0 mm/h
02.12.2020 - 22.45Uhr1.2 °C-0.6 °C88 %0.0 W/m²3.7 km/hOst-SO8.3 km/hOst-SO1014.2 hPa0.0 mm0.0 mm/h
02.12.2020 - 22.50Uhr1.2 °C-0.6 °C88 %0.0 W/m²2.6 km/hOst-SO8.3 km/hOst-SO1014.2 hPa0.0 mm0.0 mm/h